Huvudsida
METAR-TAF:

METAR-TAF

Flygplatser :

Rarotonga International Airport

Rarotonga, Cooköarna

latitud: 21-12S, longitud: 159-49W, höjd: 7 m

Aktuellt väderrapport

Denna rapport gjordes för 23 minuter sedan, klockan 11:00 UTC
Vind 8 kt från väst
Temperatur 24°C
Fuktighet 94%
Tryck 1011 hPa
Sikt 10 km eller mer
Spridda moln på en höjd av 1500 ft

METAR: NCRG 191100Z 28008KT 9999 SCT015 24/23 Q1011

Tid: 01:23 (11:23 UTC)

Väderprognos

Denna rapport gjordes för 6 timmar och 11 minuter sedan, klockan 05:12 UTC
Prognos gäller från 19 kl. 06 UTC till 20 kl. 06 UTC
Vind 8 kt från nord
Sikt 10 km eller mer
Få moln på en höjd av 1500 ft
Sannolikhet 30% :
Temporärt
från 19 kl. 06 UTC till 19 kl. 12 UTC
Sikt: 7000 m
Brutna moln på en höjd av 1500 ft
regnskurar
Sannolikhet 30%
mellan TM och EP UTC
Sikt: 5000 m
Brutna moln på en höjd av 1500 ft
regnskurar

TAF: NCRG 190512Z 1906/2006 35008KT 9999 FEW015 PROB30 TEMPO 1906/1912 7000 SHRA BKN015 PROB30 TMEPO 1912/1924 5000 SHRA BKN015

Aktuella väderrapporter och prognoser från 4000 flygplatser (METAR- och TAF-rapporter).

De tillgängliga stationerna syns som gula och röda prickar på kartan.

För musen över prickarna för att se namnen på stationerna.

Klicka sedan för att få väderrapporter och prognoser.

För att ändra kartan: Klicka på de gröna knapparna med ett svart kors på för att zooma in; den gröna knappen med ett streck på för att zooma ut; eller på de gröna pilarna för angränsande kartor.


METAR-TAF: